Pagina principale
METAR-TAF:

METAR-TAF

Aeroporti :

Aeroporto di Milano-Linate

Milano, Italia

latitudine: 45-26N, longitudine: 009-17E, altezza: 107 m

Osservazione

Il bollettino è stato emesso 36 minuti fa, alle 14:50 UTC
Vento 1 kt da direzioni variabili
Temperature 10°C
Umidità 71%
Pressione 1007 hPa
Visibilità: 5000 m
foschia

METAR: LIML 091450Z VRB01KT 5000 BR NSC 10/05 Q1007 NOSIG

Ora: 16:26 (15:26 UTC)

Previsione

Il bollettino è stato emesso 4 ore e 26 minuti fa, alle 11:00 UTC
Previsione valida dal 09 alle 12 UTC al 10 alle 12 UTC
Vento 5 kt da direzioni variabili
Visibilità: 6000 m
Nubi sparse ad un'altezza di 5000 ft
Evoluzione graduale
dal 09 alle 22 UTC al 10 alle 01 UTC
Vento 15 kt da nord/nord-ovest
Visibilità 10 km o più
nessuna nube inferiore a 1500 m e nessun cumulonembo

TAF: LIML 091100Z 0912/1012 VRB05KT 6000 SCT050 BECMG 0922/1001 34015KT CAVOK

Osservazioni e previsioni meteorologiche di più di 4000 aeroporti (messaggi METAR e TAF).

Le stazioni disponibili sono rappresentate dai dischi gialli e rossi sulla carta.

Puntare il mouse per vedere il nome della stazione.

Clicca sopra per visualizzare le osservazioni e previsioni meteorologiche.

Per cambiare la mappa : fare clic sui pulsanti verdi con una croce nera per ingrandire, il pulsante verde con un trattino per diminuire, o sulla freccia verde per le mappe adiacenti.


METAR-TAF: